Time;durP1;ratioP1;P1;durP2;ratioP2;P2;SDS_P1;SDS_P2;PMS_P1;PMS_P2;Temp;Humidity;BMP_temperature;BMP_pressure;BME280_temperature;BME280_humidity;BME280_pressure;Samples;Min_cycle;Max_cycle;Signal;HPM_P1;HPM_P2
2022/07/13 00:00:14;;;;;;;9.65;4.93;;;13.10;99.90;;;;;;5095005;28;20043;-52
2022/07/13 00:02:40;;;;;;;7.15;4.25;;;13.10;99.90;;;;;;5094673;28;20028;-52
2022/07/13 00:05:06;;;;;;;5.68;3.80;;;13.10;99.90;;;;;;5095253;28;20377;-52
2022/07/13 00:07:36;;;;;;;8.63;4.43;;;13.00;99.90;;;;;;5095142;28;20020;-52
2022/07/13 00:10:04;;;;;;;10.57;4.82;;;13.00;99.90;;;;;;5094543;28;20073;-52
2022/07/13 00:12:30;;;;;;;7.05;4.15;;;13.00;99.90;;;;;;5094978;28;20115;-52
2022/07/13 00:14:56;;;;;;;7.18;4.35;;;13.00;99.90;;;;;;5095194;28;20036;-52
2022/07/13 00:17:22;;;;;;;5.97;4.43;;;12.90;99.90;;;;;;5094737;28;20084;-52
2022/07/13 00:19:48;;;;;;;7.88;4.90;;;13.00;99.90;;;;;;5094761;28;20044;-52
2022/07/13 00:22:14;;;;;;;10.65;4.80;;;13.10;99.90;;;;;;5094789;28;20451;-52
2022/07/13 00:24:40;;;;;;;6.55;4.38;;;13.10;99.90;;;;;;5094804;28;20054;-52
2022/07/13 00:27:06;;;;;;;11.02;4.00;;;12.90;99.90;;;;;;5094815;28;20031;-52
2022/07/13 00:29:32;;;;;;;7.35;4.40;;;12.90;99.90;;;;;;5076564;28;20025;-52
2022/07/13 00:31:58;;;;;;;8.55;4.05;;;12.90;99.90;;;;;;5094769;28;20503;-52
2022/07/13 00:34:24;;;;;;;6.70;4.20;;;12.80;99.90;;;;;;5076481;28;20028;-51
2022/07/13 00:36:50;;;;;;;5.40;3.92;;;12.80;99.90;;;;;;5076569;28;20055;-52
2022/07/13 00:39:16;;;;;;;5.20;3.38;;;12.80;99.90;;;;;;5093182;28;20024;-52
2022/07/13 00:41:46;;;;;;;10.25;4.15;;;12.70;99.90;;;;;;5076294;28;20370;-52
2022/07/13 00:44:13;;;;;;;4.95;3.47;;;12.60;99.90;;;;;;5094964;28;20104;-52
2022/07/13 00:46:43;;;;;;;8.45;3.92;;;12.60;99.90;;;;;;5094683;28;20023;-52
2022/07/13 00:49:11;;;;;;;9.23;4.77;;;12.50;99.90;;;;;;5094494;28;20020;-52
2022/07/13 00:51:37;;;;;;;8.50;4.35;;;12.40;99.90;;;;;;5076315;28;20020;-52
2022/07/13 00:54:04;;;;;;;7.55;4.25;;;12.40;99.90;;;;;;5094156;28;20584;-52
2022/07/13 00:56:31;;;;;;;7.40;4.10;;;12.40;99.90;;;;;;5094396;28;20048;-52
2022/07/13 00:59:00;;;;;;;6.97;4.32;;;12.30;99.90;;;;;;5094002;28;20031;-52
2022/07/13 01:01:27;;;;;;;5.90;4.32;;;12.30;99.90;;;;;;5076492;28;20035;-52
2022/07/13 01:03:53;;;;;;;5.38;4.35;;;12.30;99.90;;;;;;5094372;28;20497;-52
2022/07/13 01:06:19;;;;;;;8.05;4.18;;;12.30;99.90;;;;;;5094188;28;20039;-52
2022/07/13 01:08:46;;;;;;;8.52;5.15;;;12.30;99.90;;;;;;5094391;28;20058;-51
2022/07/13 01:11:12;;;;;;;8.57;4.40;;;12.30;99.90;;;;;;5072614;28;20028;-52
2022/07/13 01:13:40;;;;;;;9.88;4.68;;;12.20;99.90;;;;;;5090569;28;20397;-51
2022/07/13 01:16:09;;;;;;;9.18;5.10;;;12.20;99.90;;;;;;5092939;28;20039;-51
2022/07/13 01:18:35;;;;;;;9.55;4.57;;;12.30;99.90;;;;;;5094166;28;20439;-52
2022/07/13 01:21:03;;;;;;;8.88;4.45;;;12.30;99.90;;;;;;5094651;28;20032;-51
2022/07/13 01:23:30;;;;;;;8.98;4.88;;;12.30;99.90;;;;;;5098074;28;20060;-52
2022/07/13 01:25:57;;;;;;;9.35;4.75;;;12.30;99.90;;;;;;5098350;28;20470;-52
2022/07/13 01:28:23;;;;;;;9.27;4.68;;;12.20;99.90;;;;;;5098307;28;20035;-52
2022/07/13 01:30:49;;;;;;;9.13;5.00;;;12.20;99.90;;;;;;5098036;28;20568;-52
2022/07/13 01:33:16;;;;;;;8.00;4.18;;;12.30;99.90;;;;;;5098114;28;20067;-52
2022/07/13 01:35:42;;;;;;;5.78;3.63;;;12.30;99.90;;;;;;5098038;28;20032;-52
2022/07/13 01:38:09;;;;;;;7.57;3.88;;;12.30;99.90;;;;;;5097767;28;20054;-52
2022/07/13 01:40:35;;;;;;;5.25;4.00;;;12.30;99.90;;;;;;5097912;28;20111;-52
2022/07/13 01:43:01;;;;;;;7.47;3.58;;;12.30;99.90;;;;;;5097787;28;20114;-52
2022/07/13 01:45:27;;;;;;;5.72;3.50;;;12.30;99.90;;;;;;5079599;28;20024;-52
2022/07/13 01:47:55;;;;;;;6.68;3.75;;;12.30;99.90;;;;;;5097761;28;20023;-51
2022/07/13 01:50:25;;;;;;;7.22;3.67;;;12.20;99.90;;;;;;5079377;28;20024;-52
2022/07/13 01:52:52;;;;;;;6.72;4.20;;;12.20;99.90;;;;;;5079114;28;20085;-52
2022/07/13 01:55:18;;;;;;;6.47;3.85;;;12.20;99.90;;;;;;5097466;28;20032;-52
2022/07/13 01:57:45;;;;;;;7.55;4.10;;;12.10;99.90;;;;;;5079175;28;20024;-52
2022/07/13 02:00:19;;;;;;;10.23;4.30;;;12.10;99.90;;;;;;5079153;28;20485;-52
2022/07/13 02:02:47;;;;;;;8.52;4.60;;;12.10;99.90;;;;;;5097248;28;20036;-52
2022/07/13 02:05:17;;;;;;;5.70;4.43;;;12.20;99.90;;;;;;5079058;28;20028;-52
2022/07/13 02:07:44;;;;;;;7.38;3.85;;;12.20;99.90;;;;;;5097413;28;20042;-52
2022/07/13 02:10:11;;;;;;;7.00;4.00;;;12.20;99.90;;;;;;5079143;28;20489;-52
2022/07/13 02:12:39;;;;;;;7.28;4.18;;;12.20;99.90;;;;;;5078912;28;20028;-52
2022/07/13 02:15:10;;;;;;;8.57;3.95;;;12.20;99.90;;;;;;5087844;28;20091;-52
2022/07/13 02:17:38;;;;;;;7.13;4.10;;;12.20;99.90;;;;;;5078677;28;20035;-52
2022/07/13 02:20:07;;;;;;;5.85;4.10;;;12.10;99.90;;;;;;5079200;28;20032;-52
2022/07/13 02:22:45;;;;;;;7.68;3.95;;;12.10;99.90;;;;;;5096874;28;20067;-52
2022/07/13 02:25:13;;;;;;;9.55;3.80;;;12.20;99.90;;;;;;5078751;28;20028;-52
2022/07/13 02:27:40;;;;;;;7.75;3.72;;;12.10;99.90;;;;;;5078697;28;20024;-52
2022/07/13 02:30:08;;;;;;;9.30;3.97;;;12.10;99.90;;;;;;5095848;28;20024;-51
2022/07/13 02:32:34;;;;;;;7.15;3.90;;;12.10;99.90;;;;;;5078250;28;20032;-51
2022/07/13 02:35:00;;;;;;;6.05;3.67;;;12.00;99.90;;;;;;5078597;28;20508;-52
2022/07/13 02:37:26;;;;;;;5.78;3.78;;;12.00;99.90;;;;;;5078638;28;20057;-52
2022/07/13 02:39:55;;;;;;;5.03;3.28;;;12.00;99.90;;;;;;5096715;28;20103;-52
2022/07/13 02:42:23;;;;;;;5.40;3.40;;;11.90;99.90;;;;;;5078449;28;20039;-52
2022/07/13 02:44:53;;;;;;;5.53;3.22;;;11.90;99.90;;;;;;5096785;28;20032;-52
2022/07/13 02:47:19;;;;;;;6.07;3.45;;;11.90;99.90;;;;;;5096715;28;20024;-52
2022/07/13 02:49:47;;;;;;;5.70;3.92;;;11.90;99.90;;;;;;5078172;28;20031;-52
2022/07/13 02:52:13;;;;;;;5.85;3.60;;;12.00;99.90;;;;;;5096453;28;20032;-52
2022/07/13 02:54:39;;;;;;;5.85;3.42;;;11.90;99.90;;;;;;5077998;28;20024;-52
2022/07/13 02:57:05;;;;;;;5.45;3.60;;;11.80;99.90;;;;;;5078368;28;20028;-52
2022/07/13 02:59:33;;;;;;;6.85;3.80;;;11.80;99.90;;;;;;5077871;28;20062;-52
2022/07/13 03:02:00;;;;;;;6.35;3.05;;;11.80;99.90;;;;;;5077805;28;20056;-52
2022/07/13 03:04:25;;;;;;;4.50;3.42;;;11.70;99.90;;;;;;5078071;28;20112;-52
2022/07/13 03:06:52;;;;;;;4.10;3.13;;;11.80;99.90;;;;;;5096016;28;20039;-52
2022/07/13 03:09:18;;;;;;;6.57;3.78;;;11.80;99.90;;;;;;5077818;28;20024;-52
2022/07/13 03:11:44;;;;;;;7.85;3.67;;;11.90;99.90;;;;;;5096174;28;20500;-52
2022/07/13 03:14:10;;;;;;;5.55;3.60;;;11.90;99.90;;;;;;5077781;28;20047;-52
2022/07/13 03:16:36;;;;;;;5.13;3.42;;;11.80;99.90;;;;;;5095978;28;20377;-52
2022/07/13 03:19:02;;;;;;;6.00;3.60;;;11.70;99.90;;;;;;5077502;28;20068;-52
2022/07/13 03:21:29;;;;;;;5.30;3.20;;;11.70;99.90;;;;;;5077814;28;20495;-52
2022/07/13 03:23:56;;;;;;;4.85;3.35;;;11.70;99.90;;;;;;5077642;28;20028;-52
2022/07/13 03:26:23;;;;;;;6.88;3.60;;;11.70;99.90;;;;;;5077704;28;20032;-52
2022/07/13 03:28:51;;;;;;;5.35;3.60;;;11.70;99.90;;;;;;5077376;28;20028;-52
2022/07/13 03:31:18;;;;;;;6.65;3.45;;;11.70;99.90;;;;;;5077464;28;20050;-52
2022/07/13 03:33:45;;;;;;;6.22;4.13;;;11.70;99.90;;;;;;5077509;28;20378;-52
2022/07/13 03:36:11;;;;;;;4.63;3.50;;;11.70;99.90;;;;;;5094271;28;20024;-52
2022/07/13 03:38:37;;;;;;;9.10;4.03;;;11.70;99.90;;;;;;5077196;28;20036;-52
2022/07/13 03:41:04;;;;;;;7.50;3.75;;;11.80;99.90;;;;;;5077246;28;20059;-52
2022/07/13 03:43:31;;;;;;;7.97;3.97;;;11.80;99.90;;;;;;5076606;28;20481;-52
2022/07/13 03:45:57;;;;;;;8.00;3.72;;;11.80;99.90;;;;;;5077306;28;20515;-52
2022/07/13 03:48:23;;;;;;;6.47;3.88;;;11.80;99.90;;;;;;5077472;28;20066;-52
2022/07/13 03:50:49;;;;;;;6.43;3.75;;;11.80;99.90;;;;;;5077323;28;20052;-52
2022/07/13 03:53:17;;;;;;;6.55;3.92;;;11.80;99.90;;;;;;5077013;28;20578;-52
2022/07/13 03:55:43;;;;;;;6.80;3.70;;;11.80;99.90;;;;;;5095284;28;20115;-52
2022/07/13 03:58:11;;;;;;;7.60;3.75;;;11.80;99.90;;;;;;5076882;28;20029;-52
2022/07/13 04:00:38;;;;;;;8.93;4.07;;;12.00;99.90;;;;;;5077071;28;20397;-52
2022/07/13 04:03:05;;;;;;;8.77;4.93;;;12.00;99.90;;;;;;5077041;28;20032;-52
2022/07/13 04:05:31;;;;;;;9.38;4.53;;;12.00;99.90;;;;;;5076535;28;20416;-52
2022/07/13 04:07:59;;;;;;;7.43;4.53;;;12.00;99.90;;;;;;5076929;28;20048;-52
2022/07/13 04:10:25;;;;;;;10.10;4.70;;;12.10;99.90;;;;;;5076783;28;20031;-52
2022/07/13 04:12:51;;;;;;;9.88;4.25;;;12.10;99.90;;;;;;5094994;28;20039;-52
2022/07/13 04:15:19;;;;;;;12.85;5.18;;;12.10;99.90;;;;;;5076843;28;20028;-52
2022/07/13 04:17:45;;;;;;;9.73;4.60;;;12.20;99.90;;;;;;5076462;28;20488;-52
2022/07/13 04:20:11;;;;;;;7.22;4.35;;;12.30;99.90;;;;;;5076555;28;20047;-52
2022/07/13 04:22:40;;;;;;;11.60;4.53;;;12.40;99.90;;;;;;5076705;28;20115;-52
2022/07/13 04:25:08;;;;;;;9.68;4.53;;;12.50;99.90;;;;;;5076565;28;20031;-52
2022/07/13 04:27:34;;;;;;;9.80;4.70;;;12.60;99.90;;;;;;5076377;28;20073;-52
2022/07/13 04:30:01;;;;;;;8.95;4.50;;;12.60;99.90;;;;;;5076669;28;20036;-52
2022/07/13 04:32:27;;;;;;;6.72;3.97;;;12.80;99.90;;;;;;5076421;28;20024;-52
2022/07/13 04:34:53;;;;;;;6.93;3.97;;;12.70;99.90;;;;;;5094634;28;20024;-52
2022/07/13 04:37:21;;;;;;;12.18;5.45;;;12.70;99.90;;;;;;5076536;28;20036;-52
2022/07/13 04:39:48;;;;;;;9.00;4.72;;;12.90;99.90;;;;;;5076200;28;20039;-52
2022/07/13 04:42:14;;;;;;;12.05;5.72;;;13.00;99.90;;;;;;5076277;28;20100;-52
2022/07/13 04:44:40;;;;;;;8.98;4.85;;;13.10;99.90;;;;;;5076588;28;20025;-52
2022/07/13 04:47:06;;;;;;;14.63;6.13;;;13.20;99.90;;;;;;5076223;28;20081;-52
2022/07/13 04:49:34;;;;;;;8.90;4.53;;;13.40;99.90;;;;;;5094372;28;20183;-52
2022/07/13 04:52:00;;;;;;;7.75;5.05;;;13.50;99.90;;;;;;5076240;28;20042;-52
2022/07/13 04:54:26;;;;;;;8.68;4.57;;;13.60;99.90;;;;;;5075894;28;20028;-52
2022/07/13 04:56:52;;;;;;;15.88;5.60;;;13.70;99.90;;;;;;5080339;28;20024;-52
2022/07/13 04:59:18;;;;;;;17.42;5.40;;;13.80;99.90;;;;;;5080386;28;20412;-52
2022/07/13 05:01:44;;;;;;;13.15;4.75;;;13.90;99.90;;;;;;5098506;28;20034;-52
2022/07/13 05:04:10;;;;;;;10.13;4.65;;;14.00;99.90;;;;;;5080161;28;20047;-52
2022/07/13 05:06:36;;;;;;;14.90;5.32;;;14.10;99.90;;;;;;5098407;28;20034;-52
2022/07/13 05:09:04;;;;;;;12.90;5.72;;;14.20;99.90;;;;;;5080212;28;20024;-52
2022/07/13 05:11:31;;;;;;;12.15;5.88;;;14.30;99.90;;;;;;5080211;28;20036;-52
2022/07/13 05:13:59;;;;;;;14.38;5.53;;;14.40;99.90;;;;;;5080311;28;20449;-52
2022/07/13 05:16:25;;;;;;;10.02;4.80;;;14.50;99.90;;;;;;5079982;28;20035;-52
2022/07/13 05:18:52;;;;;;;11.32;5.28;;;14.60;99.90;;;;;;5079950;28;20072;-52
2022/07/13 05:21:26;;;;;;;16.30;6.53;;;14.80;99.90;;;;;;5079839;28;20050;-52
2022/07/13 05:23:52;;;;;;;18.02;5.70;;;14.80;99.90;;;;;;5079871;28;20063;-52
2022/07/13 05:26:18;;;;;;;14.93;5.43;;;14.80;99.90;;;;;;5098206;28;20032;-52
2022/07/13 05:28:44;;;;;;;14.25;5.07;;;14.90;99.90;;;;;;5062816;28;20035;-52
2022/07/13 05:31:13;;;;;;;34.78;8.18;;;15.00;99.90;;;;;;5075762;28;20434;-52
2022/07/13 05:33:40;;;;;;;18.98;9.05;;;15.10;99.90;;;;;;5092599;28;20032;-52
2022/07/13 05:36:06;;;;;;;15.90;7.25;;;15.10;99.90;;;;;;5092970;28;20032;-52
2022/07/13 05:38:32;;;;;;;28.48;8.35;;;15.20;99.90;;;;;;5085863;28;20108;-52
2022/07/13 05:40:59;;;;;;;21.83;9.27;;;15.50;99.90;;;;;;5111118;28;20482;-52
2022/07/13 05:43:25;;;;;;;26.63;11.18;;;15.60;99.90;;;;;;5078370;28;20032;-52
2022/07/13 05:45:52;;;;;;;23.13;10.23;;;15.70;99.90;;;;;;5075678;28;20056;-52
2022/07/13 05:48:17;;;;;;;22.77;10.50;;;15.80;99.90;;;;;;5074717;28;20035;-52
2022/07/13 05:50:44;;;;;;;31.15;14.07;;;16.00;99.90;;;;;;5095302;28;20020;-52
2022/07/13 05:53:10;;;;;;;27.67;13.65;;;16.20;99.90;;;;;;5079097;28;20028;-52
2022/07/13 05:55:36;;;;;;;29.02;14.90;;;16.30;99.90;;;;;;5077103;28;20028;-52
2022/07/13 05:58:02;;;;;;;30.77;15.95;;;16.40;99.90;;;;;;5091002;28;20028;-52
2022/07/13 06:00:28;;;;;;;48.05;18.60;;;16.60;99.90;;;;;;5083529;28;20512;-52
2022/07/13 06:02:54;;;;;;;67.55;25.52;;;16.70;99.90;;;;;;5095393;28;20032;-52
2022/07/13 06:05:20;;;;;;;57.63;27.08;;;16.90;99.90;;;;;;5097122;28;20035;-52
2022/07/13 06:07:46;;;;;;;55.28;24.23;;;17.10;99.90;;;;;;5096267;28;20393;-52
2022/07/13 06:10:12;;;;;;;47.05;23.40;;;17.20;99.90;;;;;;5097056;28;20036;-52
2022/07/13 06:12:38;;;;;;;39.55;16.95;;;17.30;99.90;;;;;;5095208;28;20024;-52
2022/07/13 06:15:04;;;;;;;49.72;21.65;;;17.40;99.90;;;;;;5093056;28;20028;-52
2022/07/13 06:17:30;;;;;;;52.58;22.02;;;17.60;99.90;;;;;;5095534;28;20036;-52
2022/07/13 06:19:56;;;;;;;49.25;21.55;;;17.70;99.80;;;;;;5095989;28;20044;-52
2022/07/13 06:22:22;;;;;;;55.72;20.13;;;17.70;99.60;;;;;;5092759;28;20551;-52
2022/07/13 06:24:48;;;;;;;43.47;17.63;;;17.90;99.00;;;;;;5066844;28;20024;-52
2022/07/13 06:27:15;;;;;;;38.97;15.82;;;18.00;99.70;;;;;;5095354;28;20127;-52
2022/07/13 06:29:41;;;;;;;58.90;15.70;;;18.20;99.40;;;;;;5096037;28;20039;-52
2022/07/13 06:32:15;;;;;;;46.97;15.48;;;18.30;98.00;;;;;;5095612;28;20028;-52
2022/07/13 06:34:41;;;;;;;41.92;14.32;;;18.50;97.80;;;;;;5103027;28;20020;-52
2022/07/13 06:37:07;;;;;;;37.25;13.23;;;18.60;97.10;;;;;;5084738;28;20038;-52
2022/07/13 06:39:34;;;;;;;37.95;13.40;;;18.80;97.20;;;;;;5101359;28;20064;-53
2022/07/13 06:42:00;;;;;;;45.17;13.85;;;18.90;94.60;;;;;;5096494;28;20062;-53
2022/07/13 06:44:25;;;;;;;30.05;12.13;;;19.00;93.60;;;;;;5105786;28;20076;-53
2022/07/13 06:46:51;;;;;;;34.42;12.13;;;19.30;94.40;;;;;;5095463;28;20413;-53
2022/07/13 06:49:26;;;;;;;28.45;11.20;;;19.40;92.50;;;;;;5096455;28;20470;-53
2022/07/13 06:51:55;;;;;;;28.58;10.18;;;19.60;90.80;;;;;;5109882;28;20069;-53
2022/07/13 06:54:21;;;;;;;36.65;11.20;;;19.70;90.30;;;;;;5106259;28;20035;-53
2022/07/13 06:56:47;;;;;;;27.45;9.57;;;19.90;91.10;;;;;;5091878;28;20031;-53
2022/07/13 06:59:13;;;;;;;25.40;8.80;;;20.00;89.50;;;;;;5090140;28;20035;-53
2022/07/13 07:01:40;;;;;;;30.52;9.88;;;20.20;87.50;;;;;;5086774;28;20029;-53
2022/07/13 07:04:06;;;;;;;27.70;9.07;;;20.50;85.50;;;;;;5073968;28;20513;-53
2022/07/13 07:06:31;;;;;;;19.92;7.13;;;20.60;84.80;;;;;;5100015;28;20035;-53
2022/07/13 07:08:58;;;;;;;15.93;6.13;;;20.90;84.20;;;;;;5115670;28;20069;-53
2022/07/13 07:11:24;;;;;;;9.60;5.32;;;21.20;84.70;;;;;;5108882;28;20527;-53
2022/07/13 07:13:52;;;;;;;12.43;5.43;;;21.60;82.00;;;;;;5097605;28;20485;-53
2022/07/13 07:16:20;;;;;;;21.77;6.63;;;21.60;75.00;;;;;;5088287;28;20452;-53
2022/07/13 07:18:46;;;;;;;15.65;6.30;;;21.90;74.50;;;;;;5086346;28;20047;-53
2022/07/13 07:21:12;;;;;;;17.33;7.10;;;22.30;75.30;;;;;;5099940;28;20044;-53
2022/07/13 07:23:38;;;;;;;17.13;7.22;;;22.60;72.50;;;;;;5111031;28;22746;-52
2022/07/13 07:26:04;;;;;;;17.80;6.82;;;22.90;70.30;;;;;;5081861;28;20044;-55
2022/07/13 07:28:31;;;;;;;21.13;8.13;;;23.10;67.60;;;;;;5082419;28;20088;-53
2022/07/13 07:30:57;;;;;;;15.07;6.70;;;23.30;65.60;;;;;;5075848;28;20098;-54
2022/07/13 07:33:23;;;;;;;17.63;6.18;;;23.50;64.60;;;;;;5068745;28;20076;-54
2022/07/13 07:35:49;;;;;;;28.80;8.55;;;23.60;62.80;;;;;;5023432;28;20051;-54
2022/07/13 07:38:15;;;;;;;19.45;7.65;;;23.80;62.70;;;;;;5079721;28;20493;-54
2022/07/13 07:40:41;;;;;;;23.40;8.35;;;24.10;61.40;;;;;;5103793;27;20412;-52
2022/07/13 07:43:07;;;;;;;16.67;7.13;;;24.40;62.90;;;;;;5093624;27;20050;-53
2022/07/13 07:45:35;;;;;;;17.95;8.55;;;24.70;60.20;;;;;;5044475;28;20397;-52
2022/07/13 07:48:01;;;;;;;18.80;8.32;;;24.90;58.80;;;;;;5067461;27;20054;-52
2022/07/13 07:50:28;;;;;;;15.25;7.75;;;25.10;58.50;;;;;;5108264;27;20083;-52
2022/07/13 07:53:00;;;;;;;17.75;6.90;;;25.40;57.90;;;;;;5093529;27;20071;-52
2022/07/13 07:55:27;;;;;;;19.90;6.55;;;25.50;56.00;;;;;;5093026;28;20101;-52
2022/07/13 07:57:53;;;;;;;15.82;4.75;;;25.60;54.80;;;;;;5081111;28;20494;-53
2022/07/13 08:00:20;;;;;;;9.63;4.20;;;25.80;57.10;;;;;;5099474;28;20043;-52
2022/07/13 08:02:46;;;;;;;9.27;4.13;;;25.70;54.20;;;;;;5086807;28;20053;-52
2022/07/13 08:05:14;;;;;;;11.15;3.83;;;25.90;53.40;;;;;;5064735;28;25554;-52
2022/07/13 08:07:42;;;;;;;12.30;4.63;;;26.10;54.40;;;;;;5081786;28;20130;-52
2022/07/13 08:10:10;;;;;;;10.52;3.72;;;26.30;52.80;;;;;;5095923;28;20043;-53
2022/07/13 08:12:36;;;;;;;10.85;4.18;;;26.30;53.90;;;;;;5051316;28;20037;-52
2022/07/13 08:15:03;;;;;;;12.13;3.42;;;26.50;52.70;;;;;;5083803;28;20043;-52
2022/07/13 08:17:29;;;;;;;8.85;4.13;;;26.90;51.50;;;;;;5083000;28;23038;-52
2022/07/13 08:19:56;;;;;;;13.13;4.63;;;27.00;51.40;;;;;;5077934;28;20048;-52
2022/07/13 08:22:22;;;;;;;13.98;4.10;;;27.10;51.00;;;;;;5060446;28;20048;-52
2022/07/13 08:24:47;;;;;;;6.95;2.53;;;27.40;51.10;;;;;;5054728;28;20063;-53
2022/07/13 08:27:14;;;;;;;8.77;2.78;;;27.50;49.30;;;;;;5079482;28;20032;-52
2022/07/13 08:29:40;;;;;;;6.47;2.40;;;27.20;48.40;;;;;;5058928;28;20469;-52
2022/07/13 08:32:06;;;;;;;7.80;3.05;;;27.60;48.70;;;;;;5040398;28;20064;-52
2022/07/13 08:40:09;;;;;;;10.02;2.58;;;27.70;47.60;;;;;;5059535;28;20119;-52
2022/07/13 08:42:36;;;;;;;7.55;2.20;;;27.70;47.50;;;;;;4936576;28;20487;-52
2022/07/13 08:45:03;;;;;;;8.13;2.92;;;28.10;47.00;;;;;;4905785;28;20075;-52
2022/07/13 08:47:29;;;;;;;11.23;2.92;;;28.20;47.40;;;;;;4984876;28;20038;-52
2022/07/13 08:50:03;;;;;;;3.45;1.80;;;28.50;47.20;;;;;;4985118;28;20460;-52
2022/07/13 08:52:30;;;;;;;5.38;2.13;;;28.80;46.20;;;;;;4982925;28;20484;-53
2022/07/13 08:54:58;;;;;;;5.63;2.30;;;28.50;43.40;;;;;;5067185;28;20048;-52
2022/07/13 08:57:25;;;;;;;6.25;1.83;;;28.90;44.70;;;;;;5014047;28;20081;-52
2022/07/13 08:59:54;;;;;;;11.27;2.58;;;29.10;43.60;;;;;;4923876;28;20133;-52
2022/07/13 09:02:23;;;;;;;4.10;2.08;;;29.30;41.70;;;;;;4953231;28;20078;-52
2022/07/13 09:04:50;;;;;;;722.80;70.25;;;29.30;42.80;;;;;;4970032;28;20059;-52
2022/07/13 09:07:16;;;;;;;32.10;4.75;;;28.20;43.70;;;;;;4990731;28;20042;-53
2022/07/13 09:09:42;;;;;;;4.35;1.77;;;28.20;42.40;;;;;;5045470;28;20067;-52
2022/07/13 09:12:12;;;;;;;18.02;2.60;;;28.50;42.00;;;;;;5066196;28;20380;-52
2022/07/13 09:14:39;;;;;;;8.48;1.80;;;29.10;42.30;;;;;;5057027;28;20044;-53
2022/07/13 09:17:05;;;;;;;6.57;1.60;;;29.50;41.80;;;;;;4883773;28;20581;-52
2022/07/13 09:19:36;;;;;;;5.80;1.55;;;30.00;41.40;;;;;;4986861;28;20046;-53
2022/07/13 09:22:08;;;;;;;3.47;1.20;;;30.30;40.60;;;;;;5007622;28;20045;-53
2022/07/13 09:24:49;;;;;;;3.85;1.60;;;30.40;40.00;;;;;;5048409;28;20051;-53
2022/07/13 09:27:16;;;;;;;2.58;1.70;;;30.40;39.30;;;;;;5047777;28;20396;-53
2022/07/13 09:29:42;;;;;;;4.30;1.58;;;30.10;37.20;;;;;;5050075;28;20037;-54
2022/07/13 09:32:11;;;;;;;5.00;1.80;;;29.30;37.80;;;;;;5063644;28;20048;-52
2022/07/13 09:34:53;;;;;;;3.25;1.25;;;28.90;40.90;;;;;;4867717;28;1239126;-52
2022/07/13 09:37:21;;;;;;;13.05;2.58;;;28.90;37.70;;;;;;4996201;28;20092;-53
2022/07/13 09:40:07;;;;;;;9.50;2.75;;;28.90;39.90;;;;;;5019583;28;20049;-53
2022/07/13 09:42:39;;;;;;;5.85;1.60;;;28.60;40.40;;;;;;5028324;28;20069;-53
2022/07/13 09:47:59;;;;;;;4.45;1.52;;;28.80;40.70;;;;;;4995648;28;20037;-52
2022/07/13 09:50:39;;;;;;;5.07;1.73;;;29.10;38.40;;;;;;5102438;28;20573;-52
2022/07/13 09:53:28;;;;;;;4.63;1.75;;;28.70;41.10;;;;;;5040067;28;20546;-53
2022/07/13 09:55:57;;;;;;;7.53;1.52;;;28.60;40.50;;;;;;4954171;28;20051;-52
2022/07/13 09:58:28;;;;;;;14.38;3.42;;;28.50;41.40;;;;;;5096392;27;20044;-52
2022/07/13 10:00:56;;;;;;;5.68;2.10;;;28.20;42.80;;;;;;5084319;28;20052;-52
2022/07/13 10:03:24;;;;;;;9.00;2.50;;;27.80;42.80;;;;;;4905311;28;1287930;-52
2022/07/13 10:05:52;;;;;;;7.63;2.20;;;27.70;43.50;;;;;;5015543;28;20038;-55
2022/07/13 10:08:18;;;;;;;5.75;2.10;;;28.00;43.90;;;;;;5039350;28;20608;-52
2022/07/13 10:10:46;;;;;;;8.63;2.30;;;28.30;43.80;;;;;;5098820;28;20112;-52
2022/07/13 10:13:13;;;;;;;4.50;1.30;;;28.70;42.60;;;;;;5110699;28;20456;-52
2022/07/13 10:15:40;;;;;;;4.40;1.30;;;29.00;41.90;;;;;;5096770;28;20123;-52
2022/07/13 10:18:13;;;;;;;2.03;1.10;;;29.50;39.00;;;;;;4997943;28;20488;-54
2022/07/13 10:20:47;;;;;;;8.95;1.98;;;29.80;38.00;;;;;;5035826;28;20041;-52
2022/07/13 10:23:13;;;;;;;3.90;1.17;;;29.20;38.50;;;;;;4981876;28;20046;-52
2022/07/13 10:25:45;;;;;;;6.00;2.33;;;28.80;36.50;;;;;;5025387;28;20550;-52
2022/07/13 10:28:12;;;;;;;7.07;1.75;;;29.20;37.10;;;;;;5011291;28;24970;-53
2022/07/13 10:30:38;;;;;;;3.42;1.13;;;29.60;37.20;;;;;;5037812;28;20502;-53
2022/07/13 10:33:22;;;;;;;3.47;1.10;;;29.40;34.30;;;;;;5047110;28;20082;-52
2022/07/13 10:35:57;;;;;;;7.40;2.00;;;29.60;36.30;;;;;;5013923;28;20067;-53
2022/07/13 10:38:28;;;;;;;4.63;1.00;;;30.30;32.20;;;;;;4980640;28;20516;-53
2022/07/13 10:41:23;;;;;;;5.82;1.20;;;29.00;31.80;;;;;;5064147;28;20043;-53
2022/07/13 10:44:05;;;;;;;2.30;0.60;;;29.60;32.80;;;;;;5048135;28;20493;-52
2022/07/13 10:46:49;;;;;;;13.13;1.58;;;30.30;34.00;;;;;;5065868;28;20051;-52
2022/07/13 10:49:37;;;;;;;6.85;1.70;;;30.20;33.10;;;;;;5059202;28;20486;-52
2022/07/13 10:52:26;;;;;;;6.07;1.20;;;30.50;33.40;;;;;;5071270;28;20046;-52
2022/07/13 10:57:46;;;;;;;5.93;1.20;;;30.30;33.00;;;;;;5152176;27;20134;-52
2022/07/13 11:00:25;;;;;;;5.95;2.00;;;29.70;33.70;;;;;;5133151;27;20480;-52
2022/07/13 11:03:01;;;;;;;1.40;0.70;;;30.10;33.80;;;;;;5007821;28;1432842;-53
2022/07/13 11:05:34;;;;;;;5.32;1.10;;;29.80;33.20;;;;;;5081961;27;20417;-52
2022/07/13 11:08:12;;;;;;;4.30;1.30;;;30.40;32.40;;;;;;5066555;28;20066;-52
2022/07/13 11:10:38;;;;;;;3.33;1.38;;;30.20;32.90;;;;;;5066710;28;20078;-53
2022/07/13 11:13:15;;;;;;;2.47;1.38;;;30.30;32.40;;;;;;5061912;28;20024;-52
2022/07/13 11:15:53;;;;;;;2.90;0.88;;;30.50;30.00;;;;;;5057957;28;20120;-52
2022/07/13 11:18:22;;;;;;;1.67;0.65;;;30.50;29.90;;;;;;5060347;28;20127;-53
2022/07/13 11:20:57;;;;;;;7.43;1.45;;;30.60;30.20;;;;;;5049070;28;20431;-53
2022/07/13 11:26:39;;;;;;;10.68;1.65;;;31.50;30.20;;;;;;5068201;28;20689;-52
2022/07/13 11:29:32;;;;;;;4.55;1.50;;;31.00;30.70;;;;;;5069175;28;20021;-52
2022/07/13 11:32:03;;;;;;;2.65;1.25;;;31.20;29.50;;;;;;5067157;28;20629;-52
2022/07/13 11:34:30;;;;;;;5.90;0.90;;;30.80;32.70;;;;;;5067801;28;20024;-52
2022/07/13 11:36:58;;;;;;;2.45;0.85;;;31.00;33.10;;;;;;5060836;28;20391;-52
2022/07/13 11:39:25;;;;;;;4.45;1.63;;;31.20;32.40;;;;;;5064905;28;20024;-52
2022/07/13 11:41:51;;;;;;;2.20;1.00;;;30.60;31.10;;;;;;5070369;28;20434;-52
2022/07/13 11:44:24;;;;;;;5.95;1.70;;;30.30;32.60;;;;;;5063284;28;20028;-52
2022/07/13 11:46:54;;;;;;;7.28;1.17;;;30.20;31.00;;;;;;5071156;28;20032;-52
2022/07/13 11:49:20;;;;;;;6.32;1.40;;;30.40;33.20;;;;;;5065128;28;20112;-52
2022/07/13 11:51:47;;;;;;;3.65;1.08;;;30.30;31.10;;;;;;5071012;28;20063;-52
2022/07/13 11:54:16;;;;;;;3.55;1.48;;;30.60;31.00;;;;;;5068224;28;20078;-52
2022/07/13 11:56:47;;;;;;;4.20;1.55;;;30.00;30.70;;;;;;5070688;28;20089;-52
2022/07/13 11:59:14;;;;;;;5.75;1.15;;;29.70;32.10;;;;;;5086276;28;20037;-52
2022/07/13 12:01:49;;;;;;;10.63;1.52;;;30.20;30.20;;;;;;5070932;28;20028;-52
2022/07/13 12:04:22;;;;;;;5.30;1.20;;;30.40;30.60;;;;;;5070531;28;20447;-52
2022/07/13 12:06:49;;;;;;;4.07;1.05;;;30.80;31.10;;;;;;5085588;28;20058;-52
2022/07/13 12:09:18;;;;;;;9.13;1.50;;;30.90;29.50;;;;;;5053720;28;20103;-52
2022/07/13 12:11:45;;;;;;;5.88;1.13;;;30.80;30.00;;;;;;5055328;28;20479;-52
2022/07/13 12:14:13;;;;;;;6.53;1.33;;;31.30;31.30;;;;;;5055801;28;20121;-52
2022/07/13 12:16:39;;;;;;;5.60;1.98;;;31.40;31.10;;;;;;5051155;28;20061;-52
2022/07/13 12:19:09;;;;;;;18.25;2.70;;;31.60;30.70;;;;;;5054827;28;20052;-52
2022/07/13 12:21:38;;;;;;;4.70;1.55;;;31.60;30.00;;;;;;5047044;28;20479;-52
2022/07/13 12:24:05;;;;;;;2.13;0.90;;;31.50;29.80;;;;;;5046850;28;20108;-52
2022/07/13 12:26:31;;;;;;;5.30;2.15;;;31.60;30.60;;;;;;5048085;28;20119;-52
2022/07/13 12:29:00;;;;;;;8.70;1.98;;;31.90;31.90;;;;;;5028974;28;20489;-52
2022/07/13 12:31:26;;;;;;;4.95;1.95;;;32.20;30.60;;;;;;5031486;28;20044;-52
2022/07/13 12:33:52;;;;;;;8.43;1.60;;;32.20;30.60;;;;;;5026389;28;20506;-52
2022/07/13 12:36:28;;;;;;;4.45;1.33;;;32.40;30.50;;;;;;5042857;28;20063;-52
2022/07/13 12:38:57;;;;;;;7.53;1.38;;;32.60;29.80;;;;;;5038495;28;20112;-52
2022/07/13 12:41:27;;;;;;;3.00;1.00;;;32.40;29.80;;;;;;5044324;28;20028;-52
2022/07/13 12:44:00;;;;;;;4.75;0.90;;;32.30;29.70;;;;;;5034319;28;20489;-52
2022/07/13 12:46:43;;;;;;;2.72;1.45;;;32.40;29.70;;;;;;5046377;28;20116;-52
2022/07/13 12:49:09;;;;;;;2.35;0.88;;;32.60;28.90;;;;;;5047931;28;20078;-52
2022/07/13 12:51:52;;;;;;;3.67;0.90;;;32.10;28.50;;;;;;5043634;28;20029;-52
2022/07/13 12:54:46;;;;;;;2.45;1.27;;;32.40;28.00;;;;;;5043200;28;20029;-52
2022/07/13 12:57:23;;;;;;;1.60;0.90;;;32.70;29.00;;;;;;5050254;28;20025;-52
2022/07/13 13:00:11;;;;;;;7.25;1.50;;;32.50;28.10;;;;;;5052796;28;20032;-52
2022/07/13 13:02:37;;;;;;;32.20;4.20;;;32.70;29.70;;;;;;5048367;28;20021;-52